Time;durP1;ratioP1;P1;durP2;ratioP2;P2;SDS_P1;SDS_P2;PMS_P1;PMS_P2;Temp;Humidity;BMP_temperature;BMP_pressure;BME280_temperature;BME280_humidity;BME280_pressure;Samples;Min_cycle;Max_cycle;Signal;HPM_P1;HPM_P2
2022/09/03 00:00:29;;;;;;;11.73;4.95;;;;;;;25.35;82.52;100283.03;5014019;28;20176;-79
2022/09/03 00:03:17;;;;;;;19.58;5.75;;;;;;;25.46;81.56;100286.94;5030017;28;20127;-77
2022/09/03 00:05:54;;;;;;;11.02;4.97;;;;;;;25.50;80.05;100271.69;5011962;28;20030;-78
2022/09/03 00:08:30;;;;;;;16.50;4.75;;;;;;;25.52;78.87;100269.53;4997090;28;20104;-78
2022/09/03 00:11:02;;;;;;;10.50;4.80;;;;;;;25.45;78.85;100258.56;5013151;28;20030;-78
2022/09/03 00:13:56;;;;;;;18.50;5.28;;;;;;;25.40;78.99;100255.69;5015915;28;20042;-78
2022/09/03 00:16:25;;;;;;;10.98;5.63;;;;;;;25.39;79.09;100253.97;5013385;28;20045;-78
2022/09/03 00:19:00;;;;;;;19.10;5.22;;;;;;;25.34;79.02;100259.34;5013643;28;20088;-78
2022/09/03 00:21:38;;;;;;;16.38;5.10;;;;;;;25.19;79.09;100263.56;5013442;28;20577;-78
2022/09/03 00:24:07;;;;;;;23.67;6.68;;;;;;;25.02;77.73;100234.94;5013513;28;20100;-78
2022/09/03 00:26:35;;;;;;;22.25;5.93;;;;;;;25.05;77.46;100251.81;5013063;28;20110;-79
2022/09/03 00:29:06;;;;;;;18.48;5.00;;;;;;;25.03;77.51;100253.97;5013218;28;20034;-78
2022/09/03 00:31:41;;;;;;;18.23;5.35;;;;;;;24.94;76.92;100246.25;4998055;28;20051;-77
2022/09/03 00:34:22;;;;;;;35.13;6.00;;;;;;;24.92;76.48;100253.91;5013392;28;20411;-76
2022/09/03 00:36:48;;;;;;;16.50;5.00;;;;;;;24.85;76.94;100273.22;5013673;28;20026;-78
2022/09/03 00:39:23;;;;;;;17.08;5.68;;;;;;;24.89;77.58;100278.03;4980289;28;20121;-78
2022/09/03 00:42:22;;;;;;;12.90;5.43;;;;;;;24.83;76.82;100281.69;5013619;28;20033;-77
2022/09/03 00:45:09;;;;;;;9.35;4.57;;;;;;;24.82;76.74;100291.00;5012556;28;20029;-79
2022/09/03 00:47:58;;;;;;;21.38;5.93;;;;;;;24.86;76.97;100303.22;5010863;28;20030;-78
2022/09/03 00:50:46;;;;;;;13.13;4.90;;;;;;;24.86;76.57;100310.66;5014012;28;20120;-79
2022/09/03 00:53:32;;;;;;;19.00;5.82;;;;;;;24.82;77.02;100324.03;4998637;28;20041;-78
2022/09/03 00:56:22;;;;;;;19.10;6.32;;;;;;;24.77;77.37;100332.06;5013749;28;20042;-78
2022/09/03 00:59:00;;;;;;;16.88;6.22;;;;;;;24.73;77.52;100325.34;5002394;28;20112;-78
2022/09/03 01:01:39;;;;;;;21.27;5.47;;;;;;;24.77;77.46;100336.72;5017932;28;20037;-78
2022/09/03 01:04:24;;;;;;;15.50;6.70;;;;;;;24.70;77.18;100325.78;5030775;28;20100;-78
2022/09/03 01:06:57;;;;;;;41.08;9.60;;;;;;;24.72;76.99;100334.66;5014325;28;20026;-77
2022/09/03 01:09:56;;;;;;;17.73;6.45;;;;;;;24.64;77.10;100320.34;5013197;28;20455;-79
2022/09/03 01:12:45;;;;;;;10.27;5.70;;;;;;;24.66;76.78;100319.03;5012941;28;20449;-77
2022/09/03 01:15:22;;;;;;;26.30;6.63;;;;;;;24.65;77.39;100322.84;5015672;28;20026;-77
2022/09/03 01:18:13;;;;;;;19.38;5.85;;;;;;;24.61;77.66;100310.63;5009127;28;20046;-78
2022/09/03 01:20:57;;;;;;;12.02;5.57;;;;;;;24.60;77.55;100313.59;5012481;28;20033;-77
2022/09/03 01:23:50;;;;;;;16.40;6.13;;;;;;;24.54;77.55;100314.50;5006274;28;20033;-78
2022/09/03 01:26:34;;;;;;;12.82;5.85;;;;;;;24.56;77.57;100324.19;4993569;28;20129;-78
2022/09/03 01:29:09;;;;;;;14.90;5.25;;;;;;;24.52;76.87;100314.72;5012790;28;20056;-78
2022/09/03 01:31:56;;;;;;;11.70;4.38;;;;;;;24.49;76.92;100309.66;5013386;28;20053;-78
2022/09/03 01:35:09;;;;;;;14.85;5.07;;;;;;;24.52;76.47;100303.72;4995316;28;20065;-78
2022/09/03 01:38:05;;;;;;;10.60;4.00;;;;;;;24.50;76.40;100297.59;4979642;28;20043;-78
2022/09/03 01:40:51;;;;;;;22.25;4.28;;;;;;;24.39;75.38;100309.31;5013205;28;20061;-77
2022/09/03 01:43:23;;;;;;;8.60;3.60;;;;;;;24.30;74.87;100302.41;5012949;28;20030;-77
2022/09/03 01:45:59;;;;;;;23.38;3.85;;;;;;;24.23;74.87;100307.09;5012827;28;20034;-78
2022/09/03 01:48:33;;;;;;;44.28;5.50;;;;;;;24.20;74.71;100310.28;5012514;28;20037;-78
2022/09/03 01:51:09;;;;;;;9.13;3.50;;;;;;;24.12;74.86;100305.91;4993458;28;20045;-77
2022/09/03 01:54:00;;;;;;;5.43;3.30;;;;;;;24.07;73.96;100308.41;4993295;28;20041;-77
2022/09/03 01:56:50;;;;;;;8.55;2.95;;;;;;;23.95;74.18;100298.34;4992992;28;20034;-77
2022/09/03 01:59:34;;;;;;;8.00;3.17;;;;;;;23.80;74.68;100291.25;4993157;28;20107;-77
2022/09/03 02:02:20;;;;;;;5.80;2.55;;;;;;;23.76;74.82;100289.97;4992857;28;20042;-78
2022/09/03 02:05:08;;;;;;;12.95;3.65;;;;;;;23.66;75.60;100270.41;4992976;28;20050;-77
2022/09/03 02:08:02;;;;;;;10.90;3.25;;;;;;;23.60;75.53;100279.50;5002022;28;20029;-78
2022/09/03 02:10:43;;;;;;;19.42;4.70;;;;;;;23.49;76.19;100285.66;5009182;28;20045;-78
2022/09/03 02:13:11;;;;;;;6.28;3.13;;;;;;;23.43;76.66;100283.78;5018702;28;20042;-77
2022/09/03 02:15:40;;;;;;;5.28;3.28;;;;;;;23.41;77.05;100288.66;5031793;28;20052;-77
2022/09/03 02:18:13;;;;;;;14.80;3.75;;;;;;;23.38;77.23;100291.81;5031972;28;20108;-77
2022/09/03 02:20:39;;;;;;;8.25;3.83;;;;;;;23.30;77.86;100278.31;5012347;28;20064;-76
2022/09/03 02:23:05;;;;;;;8.35;3.65;;;;;;;23.33;77.91;100294.38;5011842;28;20113;-76
2022/09/03 02:25:49;;;;;;;5.68;3.55;;;;;;;23.33;78.01;100301.75;5012089;28;20144;-77
2022/09/03 02:28:14;;;;;;;6.90;3.28;;;;;;;23.18;77.66;100302.81;5011749;28;20029;-77
2022/09/03 02:30:41;;;;;;;8.15;3.47;;;;;;;23.15;77.97;100318.84;5012405;28;20030;-78
2022/09/03 02:33:06;;;;;;;4.35;2.83;;;;;;;23.12;77.90;100330.25;5012368;28;20088;-78
2022/09/03 02:35:33;;;;;;;7.35;3.63;;;;;;;23.01;78.72;100336.41;5012379;28;20468;-79
2022/09/03 02:38:11;;;;;;;4.45;3.70;;;;;;;22.88;78.24;100325.44;5012095;28;20037;-77
2022/09/03 02:40:38;;;;;;;8.60;3.53;;;;;;;22.75;78.98;100334.53;5012118;28;20117;-76
2022/09/03 02:43:07;;;;;;;6.10;3.72;;;;;;;22.67;79.18;100338.31;5011941;28;20060;-76
2022/09/03 02:45:36;;;;;;;15.20;4.88;;;;;;;22.50;79.51;100325.19;5012246;28;20038;-78
2022/09/03 02:48:02;;;;;;;12.45;4.25;;;;;;;22.48;79.96;100325.41;5012283;28;20041;-77
2022/09/03 02:50:28;;;;;;;6.30;3.75;;;;;;;22.51;80.00;100343.31;5012095;28;20037;-78
2022/09/03 02:52:53;;;;;;;10.15;3.92;;;;;;;22.44;79.64;100348.81;5012262;28;20088;-78
2022/09/03 02:55:20;;;;;;;9.43;4.65;;;;;;;22.35;79.61;100341.84;5011970;28;20484;-79
2022/09/03 02:57:45;;;;;;;12.32;4.72;;;;;;;22.39;78.88;100344.97;5012405;28;20091;-77
2022/09/03 03:00:12;;;;;;;11.73;5.03;;;;;;;22.34;79.09;100351.09;5011900;28;20034;-77
2022/09/03 03:02:37;;;;;;;11.25;5.10;;;;;;;22.20;78.34;100335.66;5011555;28;20054;-77
2022/09/03 03:05:06;;;;;;;10.68;4.72;;;;;;;22.23;77.99;100336.09;5011764;28;20045;-78
2022/09/03 03:07:35;;;;;;;7.55;4.70;;;;;;;22.18;77.57;100343.25;5011746;28;20045;-78
2022/09/03 03:10:01;;;;;;;9.43;4.68;;;;;;;21.98;77.67;100314.97;5011055;28;20420;-77
2022/09/03 03:12:28;;;;;;;10.30;5.30;;;;;;;22.00;77.74;100334.78;5000044;28;20038;-79
2022/09/03 03:14:54;;;;;;;12.43;4.78;;;;;;;21.88;78.38;100325.44;5024364;28;20068;-78
2022/09/03 03:17:19;;;;;;;11.05;4.57;;;;;;;21.78;78.85;100319.50;5031781;28;20373;-77
2022/09/03 03:19:45;;;;;;;6.90;4.63;;;;;;;21.79;79.37;100337.63;5031592;28;20032;-78
2022/09/03 03:22:10;;;;;;;8.95;4.70;;;;;;;21.75;79.85;100336.31;5031588;28;20029;-77
2022/09/03 03:24:36;;;;;;;13.88;4.72;;;;;;;21.84;79.67;100337.84;5025375;28;20066;-77
2022/09/03 03:27:05;;;;;;;10.65;4.32;;;;;;;21.82;79.47;100309.84;5014943;28;20040;-78
2022/09/03 03:29:30;;;;;;;15.95;4.55;;;;;;;22.03;78.95;100335.22;5015321;28;20116;-77
2022/09/03 03:31:56;;;;;;;15.07;4.85;;;;;;;21.99;79.36;100327.59;5014545;28;20121;-78
2022/09/03 03:34:22;;;;;;;12.07;5.00;;;;;;;22.11;79.41;100325.94;5014615;28;20037;-78
2022/09/03 03:36:47;;;;;;;9.15;4.40;;;;;;;22.12;78.25;100322.16;5015218;28;20133;-78
2022/09/03 03:39:13;;;;;;;8.00;4.32;;;;;;;22.18;78.10;100333.16;5014672;28;20558;-77
2022/09/03 03:41:38;;;;;;;7.35;4.22;;;;;;;22.26;77.66;100343.09;5014852;28;20037;-78
2022/09/03 03:44:06;;;;;;;7.40;4.00;;;;;;;22.40;76.88;100347.53;5014841;28;20038;-77
2022/09/03 03:46:37;;;;;;;7.13;3.58;;;;;;;22.48;76.14;100352.81;5015059;28;20515;-77
2022/09/03 03:49:06;;;;;;;10.88;4.00;;;;;;;22.46;75.81;100351.34;5014844;28;20048;-78
2022/09/03 03:51:32;;;;;;;7.60;3.58;;;;;;;22.41;75.56;100337.41;5015263;28;20087;-78
2022/09/03 03:53:58;;;;;;;11.68;4.20;;;;;;;22.44;75.61;100334.25;5014780;28;20554;-78
2022/09/03 03:56:25;;;;;;;47.33;8.13;;;;;;;22.53;75.04;100347.56;5014580;28;20026;-77
2022/09/03 03:58:52;;;;;;;17.48;4.43;;;;;;;22.60;74.93;100342.91;5014214;28;20076;-77
2022/09/03 04:01:23;;;;;;;7.47;3.70;;;;;;;22.60;75.14;100347.53;5014371;28;20109;-78
2022/09/03 04:03:49;;;;;;;14.80;4.28;;;;;;;22.63;74.91;100358.09;5014569;28;20050;-78
2022/09/03 04:06:18;;;;;;;10.38;3.88;;;;;;;22.67;74.49;100349.28;5014469;28;20026;-78
2022/09/03 04:08:46;;;;;;;10.73;3.95;;;;;;;22.67;74.76;100359.41;5014047;28;20476;-78
2022/09/03 04:11:16;;;;;;;9.50;3.67;;;;;;;22.43;75.29;100355.34;5014140;28;20042;-79
2022/09/03 04:13:43;;;;;;;7.45;3.95;;;;;;;22.60;75.29;100372.22;5020579;28;20469;-79
2022/09/03 04:16:20;;;;;;;8.75;3.70;;;;;;;22.54;75.19;100359.34;5028332;28;20041;-80
2022/09/03 04:18:48;;;;;;;8.35;3.92;;;;;;;22.82;74.84;100394.84;5025502;28;20061;-79
2022/09/03 04:21:25;;;;;;;14.05;4.57;;;;;;;22.86;74.78;100412.56;5014771;28;20033;-80
2022/09/03 04:23:51;;;;;;;11.65;4.13;;;;;;;22.84;74.50;100412.81;5015004;28;20498;-80
2022/09/03 04:26:20;;;;;;;9.30;5.43;;;;;;;22.62;75.00;100403.88;5014939;28;20038;-81
2022/09/03 04:28:46;;;;;;;18.17;4.43;;;;;;;22.70;74.98;100425.63;5014538;28;20034;-78
2022/09/03 04:31:14;;;;;;;16.55;5.65;;;;;;;22.78;74.53;100433.66;5014652;28;20045;-78
2022/09/03 04:33:40;;;;;;;12.73;4.15;;;;;;;22.64;74.62;100410.00;5014565;28;20030;-79
2022/09/03 04:36:07;;;;;;;8.20;4.55;;;;;;;22.67;74.58;100431.53;5013824;28;20108;-78
2022/09/03 04:38:34;;;;;;;10.13;4.82;;;;;;;22.59;74.58;100428.97;5014092;28;20086;-78
2022/09/03 04:41:00;;;;;;;10.82;4.85;;;;;;;22.47;74.96;100407.84;5014126;28;20038;-78
2022/09/03 04:43:26;;;;;;;9.75;4.75;;;;;;;22.52;75.07;100421.75;5013664;28;20056;-78
2022/09/03 04:45:56;;;;;;;13.50;5.07;;;;;;;22.44;75.09;100414.59;5013645;28;20022;-81
2022/09/03 04:48:22;;;;;;;7.25;5.38;;;;;;;22.40;74.98;100416.03;5013221;28;20507;-80
2022/09/03 04:50:47;;;;;;;26.30;6.85;;;;;;;22.28;75.49;100412.22;5012321;28;20030;-79
2022/09/03 04:53:13;;;;;;;22.90;10.45;;;;;;;22.28;75.73;100425.91;5013273;28;20029;-79
2022/09/03 04:55:38;;;;;;;9.73;5.47;;;;;;;22.20;76.03;100412.38;4994768;28;20022;-79
2022/09/03 04:58:06;;;;;;;8.18;5.47;;;;;;;22.16;75.85;100394.69;5013493;28;20416;-78
2022/09/03 05:00:32;;;;;;;8.88;5.05;;;;;;;22.28;75.53;100414.97;5012449;28;20037;-78
2022/09/03 05:03:01;;;;;;;9.82;5.57;;;;;;;22.19;76.12;100416.19;5012959;28;20050;-78
2022/09/03 05:05:26;;;;;;;10.63;5.88;;;;;;;22.14;75.60;100418.69;5013206;28;20125;-79
2022/09/03 05:07:52;;;;;;;9.50;5.60;;;;;;;22.03;75.80;100400.94;5012565;28;20109;-79
2022/09/03 05:10:21;;;;;;;14.20;6.65;;;;;;;22.26;75.50;100433.50;4994903;28;20061;-78
2022/09/03 05:12:48;;;;;;;10.32;4.93;;;;;;;22.27;74.98;100429.69;5011901;28;20041;-81
2022/09/03 05:15:14;;;;;;;9.70;5.45;;;;;;;22.24;75.06;100430.09;5026428;28;20118;-81
2022/09/03 05:17:40;;;;;;;9.63;6.70;;;;;;;22.34;74.52;100440.69;5033219;28;20128;-81
2022/09/03 05:20:07;;;;;;;8.68;4.80;;;;;;;22.31;74.52;100452.06;5032781;28;20037;-79
2022/09/03 05:22:33;;;;;;;9.43;5.53;;;;;;;22.28;73.99;100425.91;5012915;28;20065;-80
2022/09/03 05:24:59;;;;;;;10.40;5.47;;;;;;;22.43;73.40;100456.75;5012703;28;20503;-81
2022/09/03 05:27:24;;;;;;;7.22;5.35;;;;;;;22.31;73.37;100436.47;5013155;28;20037;-82
2022/09/03 05:29:49;;;;;;;16.23;6.40;;;;;;;22.32;73.81;100454.59;5013357;28;20487;-81
2022/09/03 05:32:16;;;;;;;14.50;5.80;;;;;;;22.35;73.41;100454.19;5012530;28;20038;-79
2022/09/03 05:34:44;;;;;;;39.67;7.82;;;;;;;22.33;73.47;100445.31;5012509;28;20026;-79
2022/09/03 05:37:11;;;;;;;11.57;6.65;;;;;;;22.25;72.84;100418.09;5012800;28;20065;-81
2022/09/03 05:39:37;;;;;;;11.65;7.28;;;;;;;22.46;72.36;100437.16;5012840;28;20038;-79
2022/09/03 05:42:02;;;;;;;17.05;8.60;;;;;;;22.50;71.80;100452.13;5012124;28;20038;-80
2022/09/03 05:44:28;;;;;;;10.90;6.88;;;;;;;22.56;71.53;100456.78;5011515;28;20423;-78
2022/09/03 05:46:53;;;;;;;16.20;7.60;;;;;;;22.49;71.73;100444.97;5010814;28;20522;-80
2022/09/03 05:49:19;;;;;;;20.83;8.43;;;;;;;22.43;71.53;100440.31;5012573;28;20068;-82
2022/09/03 05:51:45;;;;;;;14.88;8.98;;;;;;;22.40;71.29;100459.91;5012436;28;20065;-81
2022/09/03 05:54:10;;;;;;;21.23;9.25;;;;;;;22.24;71.50;100422.75;5013076;28;20500;-83
2022/09/03 05:56:41;;;;;;;21.25;10.50;;;;;;;22.48;71.43;100454.22;5012625;28;20068;-79
2022/09/03 05:59:08;;;;;;;22.08;10.13;;;;;;;22.45;71.52;100449.16;5012203;28;20518;-79
2022/09/03 06:01:39;;;;;;;18.88;10.23;;;;;;;22.39;70.89;100433.53;5013881;28;20112;-81
2022/09/03 06:04:12;;;;;;;22.60;10.35;;;;;;;22.45;71.18;100462.84;5011154;28;20121;-78
2022/09/03 06:06:43;;;;;;;18.20;9.50;;;;;;;22.47;70.82;100458.03;5012276;28;20041;-81
2022/09/03 06:09:12;;;;;;;24.60;11.32;;;;;;;22.37;71.25;100465.78;5012059;28;20478;-79
2022/09/03 06:11:41;;;;;;;45.08;12.98;;;;;;;22.23;71.15;100458.56;5011454;28;20037;-80
2022/09/03 06:14:08;;;;;;;29.45;10.88;;;;;;;22.26;71.72;100469.13;5016723;28;20124;-79
2022/09/03 06:16:42;;;;;;;23.42;12.32;;;;;;;22.28;71.24;100479.88;5026459;28;20470;-80
2022/09/03 06:19:09;;;;;;;22.17;10.77;;;;;;;22.24;70.81;100482.16;5012259;28;20037;-80
2022/09/03 06:21:38;;;;;;;22.40;12.13;;;;;;;22.14;70.82;100481.69;5012286;28;20381;-81
2022/09/03 06:24:04;;;;;;;30.45;11.90;;;;;;;22.11;70.98;100479.34;5013037;28;20041;-80
2022/09/03 06:26:29;;;;;;;34.97;12.73;;;;;;;21.96;71.36;100478.63;5012924;28;20038;-80
2022/09/03 06:28:56;;;;;;;19.33;11.88;;;;;;;21.99;71.85;100497.41;5011801;28;20519;-79
2022/09/03 06:31:22;;;;;;;26.88;11.23;;;;;;;22.00;71.96;100507.31;5011764;28;20472;-80
2022/09/03 06:33:48;;;;;;;19.73;10.77;;;;;;;22.02;71.64;100499.75;5013277;28;20045;-83
2022/09/03 06:36:18;;;;;;;23.77;12.55;;;;;;;22.04;71.60;100495.78;4995765;28;20041;-85
2022/09/03 06:38:45;;;;;;;30.40;10.85;;;;;;;22.07;71.36;100475.34;5013979;28;20088;-83
2022/09/03 06:41:19;;;;;;;23.63;10.90;;;;;;;22.25;71.40;100494.81;5013828;28;20143;-86
2022/09/03 06:43:46;;;;;;;18.52;10.52;;;;;;;22.10;71.50;100484.00;5014419;28;20798;-86
2022/09/03 06:46:17;;;;;;;16.23;10.52;;;;;;;22.29;71.37;100498.84;4994773;28;20036;-83
2022/09/03 06:48:42;;;;;;;17.27;10.85;;;;;;;22.29;70.74;100479.69;5013090;28;20038;-85
2022/09/03 06:51:09;;;;;;;20.45;10.23;;;;;;;22.46;70.53;100505.66;4995169;28;20121;-83
2022/09/03 06:53:43;;;;;;;21.73;11.02;;;;;;;22.35;69.95;100486.22;5013154;28;20504;-91
2022/09/03 06:56:13;;;;;;;24.00;15.80;;;;;;;22.44;70.05;100510.53;4995835;28;20380;-84
2022/09/03 06:58:44;;;;;;;19.38;12.75;;;;;;;22.56;70.08;100502.53;5013443;28;20038;-84
2022/09/03 07:01:13;;;;;;;31.88;13.50;;;;;;;22.62;69.82;100494.34;5015792;28;20041;-85
2022/09/03 07:03:41;;;;;;;24.35;11.75;;;;;;;22.89;69.44;100500.78;5015504;28;20050;-86
2022/09/03 07:06:09;;;;;;;15.25;10.18;;;;;;;22.91;68.67;100501.41;5015426;28;20432;-83
2022/09/03 07:08:35;;;;;;;34.85;11.95;;;;;;;22.91;68.92;100508.78;5015105;28;20026;-81
2022/09/03 07:11:09;;;;;;;18.08;10.32;;;;;;;22.83;68.70;100487.03;5015326;28;20045;-85
2022/09/03 07:13:35;;;;;;;16.38;9.85;;;;;;;23.05;68.27;100521.50;4998182;28;20056;-88
2022/09/03 07:16:07;;;;;;;16.25;10.18;;;;;;;23.19;68.26;100539.66;5016246;28;20112;-81
2022/09/03 07:18:33;;;;;;;14.13;8.87;;;;;;;23.16;67.54;100532.69;5014705;28;20132;-82
2022/09/03 07:21:04;;;;;;;20.13;12.25;;;;;;;23.10;67.52;100518.94;5013884;28;20073;-82
2022/09/03 07:23:31;;;;;;;30.08;15.93;;;;;;;23.17;66.99;100508.84;5015302;28;20041;-86
2022/09/03 07:25:59;;;;;;;19.45;10.70;;;;;;;23.26;67.64;100535.03;5015216;28;20415;-84
2022/09/03 07:28:26;;;;;;;16.30;9.63;;;;;;;23.27;66.74;100534.00;5015817;28;20030;-86
2022/09/03 07:30:54;;;;;;;16.40;10.05;;;;;;;23.20;67.37;100530.38;5015646;28;20507;-87
2022/09/03 07:33:19;;;;;;;31.42;9.82;;;;;;;23.21;67.44;100537.53;5015350;28;20072;-84
2022/09/03 07:35:46;;;;;;;22.25;9.60;;;;;;;23.19;66.93;100545.13;5014267;28;20453;-81
2022/09/03 07:38:16;;;;;;;15.73;9.10;;;;;;;23.21;66.57;100540.28;5014092;28;20045;-82
2022/09/03 07:40:42;;;;;;;20.15;10.73;;;;;;;23.31;65.96;100557.19;5013692;28;20077;-84
2022/09/03 07:43:08;;;;;;;23.10;11.48;;;;;;;23.30;65.55;100553.59;5014612;28;20092;-79
2022/09/03 07:45:34;;;;;;;25.95;11.23;;;;;;;23.16;66.09;100551.03;5013965;28;20140;-83
2022/09/03 07:48:00;;;;;;;19.75;10.38;;;;;;;23.02;66.35;100546.59;5015219;28;20046;-87
2022/09/03 07:50:26;;;;;;;19.17;10.80;;;;;;;23.10;66.50;100557.38;5014995;28;20052;-92
2022/09/03 07:52:57;;;;;;;15.20;11.05;;;;;;;23.15;66.22;100565.81;5014619;28;20033;-81
2022/09/03 07:55:23;;;;;;;17.10;11.40;;;;;;;23.10;65.72;100560.97;5014551;28;20030;-80
2022/09/03 07:57:48;;;;;;;14.55;10.57;;;;;;;23.09;65.78;100562.00;5014521;28;20034;-84
2022/09/03 08:00:14;;;;;;;17.02;10.30;;;;;;;22.98;66.65;100543.41;5014782;28;20044;-82
2022/09/03 08:02:40;;;;;;;17.70;10.45;;;;;;;23.09;66.60;100541.94;5013751;28;20081;-82
2022/09/03 08:05:28;;;;;;;26.48;11.43;;;;;;;23.24;66.13;100535.22;5013902;28;20051;-93
2022/09/03 08:07:53;;;;;;;23.13;11.10;;;;;;;23.37;65.29;100539.88;5002463;28;20042;-80
2022/09/03 08:10:20;;;;;;;19.40;11.77;;;;;;;23.33;65.20;100533.16;5012801;28;20097;-80
2022/09/03 08:12:45;;;;;;;14.40;9.55;;;;;;;23.37;64.65;100528.06;4994411;28;20038;-85
2022/09/03 08:15:11;;;;;;;23.17;12.38;;;;;;;23.48;64.51;100543.94;5002676;28;20036;-85
2022/09/03 08:17:36;;;;;;;18.65;11.57;;;;;;;23.48;64.25;100533.81;5017983;28;20038;-82
2022/09/03 08:20:03;;;;;;;24.60;11.70;;;;;;;23.47;64.37;100515.66;5035934;28;20103;-91
2022/09/03 08:22:28;;;;;;;20.73;12.43;;;;;;;23.50;64.41;100517.97;5016421;28;20076;-86
2022/09/03 08:24:54;;;;;;;18.40;10.15;;;;;;;23.42;64.86;100490.75;5033970;28;20073;-87
2022/09/03 08:27:24;;;;;;;21.08;10.00;;;;;;;23.63;64.39;100509.75;5016115;28;20033;-89
2022/09/03 08:29:49;;;;;;;18.15;11.20;;;;;;;23.64;64.60;100510.56;5033874;28;20037;-85
2022/09/03 08:32:15;;;;;;;16.38;10.93;;;;;;;23.57;64.04;100505.09;5034354;28;20044;-87
2022/09/03 08:34:40;;;;;;;18.83;10.80;;;;;;;23.64;63.85;100532.53;5033803;28;20900;-86
2022/09/03 08:37:08;;;;;;;15.30;10.55;;;;;;;23.60;64.41;100518.41;5033869;28;20025;-88
2022/09/03 08:39:34;;;;;;;17.55;10.15;;;;;;;23.84;64.39;100534.22;5033620;28;20037;-83
2022/09/03 08:42:17;;;;;;;16.80;10.23;;;;;;;23.90;63.32;100515.19;5034163;28;20411;-85
2022/09/03 08:44:57;;;;;;;17.35;9.23;;;;;;;23.86;63.20;100498.28;5033237;28;20041;-85
2022/09/03 08:47:42;;;;;;;12.75;8.80;;;;;;;24.16;62.93;100534.38;5033242;28;20037;-85
2022/09/03 08:50:11;;;;;;;16.35;7.75;;;;;;;24.25;62.28;100546.84;5033608;28;20037;-84
2022/09/03 08:52:52;;;;;;;14.05;7.50;;;;;;;24.07;62.46;100552.13;5033179;28;20037;-81
2022/09/03 08:55:42;;;;;;;12.27;8.20;;;;;;;23.97;62.43;100559.97;5033143;28;20037;-92
2022/09/03 08:58:17;;;;;;;20.15;8.68;;;;;;;23.74;62.96;100561.25;5015250;28;20128;-84
2022/09/03 09:01:00;;;;;;;27.17;10.38;;;;;;;23.57;63.70;100549.03;5033070;28;20041;-85
2022/09/03 09:03:25;;;;;;;17.45;8.88;;;;;;;23.72;63.88;100557.91;5033395;28;20054;-83
2022/09/03 09:06:08;;;;;;;12.70;9.75;;;;;;;23.80;63.39;100560.41;5032847;28;20034;-85
2022/09/03 09:08:47;;;;;;;14.73;9.43;;;;;;;23.71;63.10;100539.72;5033106;28;20037;-87
2022/09/03 09:11:32;;;;;;;15.23;8.45;;;;;;;23.90;63.35;100559.13;5033223;28;20041;-85
2022/09/03 09:14:05;;;;;;;20.33;9.27;;;;;;;23.98;63.31;100547.91;5029245;28;20033;-82
2022/09/03 09:16:53;;;;;;;13.23;8.77;;;;;;;24.18;62.35;100557.03;5013123;28;20037;-83
2022/09/03 09:19:43;;;;;;;11.95;8.43;;;;;;;24.20;62.01;100560.38;5012775;28;20045;-83
2022/09/03 09:22:37;;;;;;;37.60;10.63;;;;;;;24.27;62.58;100570.31;5012854;28;20038;-86
2022/09/03 09:25:13;;;;;;;14.65;8.20;;;;;;;24.45;62.03;100547.63;5012234;28;20045;-84
2022/09/03 09:27:45;;;;;;;17.30;8.15;;;;;;;24.71;60.89;100561.25;5014319;28;20038;-90
2022/09/03 09:30:15;;;;;;;25.73;9.48;;;;;;;25.00;59.95;100567.31;4997363;28;20129;-86
2022/09/03 09:32:41;;;;;;;13.70;8.15;;;;;;;24.99;59.70;100574.72;5013444;28;20041;-90
2022/09/03 09:35:10;;;;;;;9.90;7.43;;;;;;;24.98;59.47;100563.94;5013557;28;20100;-90
2022/09/03 09:37:46;;;;;;;13.88;7.90;;;;;;;25.10;59.53;100568.53;4995873;28;20042;-89
2022/09/03 09:40:25;;;;;;;25.60;11.07;;;;;;;25.24;59.82;100574.78;4996427;28;20045;-90
2022/09/03 09:42:57;;;;;;;22.90;9.57;;;;;;;25.48;58.80;100582.25;5013611;28;20044;-86
2022/09/03 09:45:23;;;;;;;13.05;7.57;;;;;;;25.51;58.18;100587.34;5012832;28;20038;-90
2022/09/03 09:47:54;;;;;;;11.27;7.72;;;;;;;25.46;58.23;100573.38;5013617;28;20068;-86
2022/09/03 09:50:21;;;;;;;11.55;7.30;;;;;;;25.40;57.84;100579.75;5013533;28;20044;-86
2022/09/03 09:52:46;;;;;;;16.27;7.63;;;;;;;25.39;58.22;100594.59;4994947;28;20034;-87
2022/09/03 09:55:18;;;;;;;13.95;6.70;;;;;;;25.07;58.17;100587.38;5012603;28;20463;-83
2022/09/03 09:57:44;;;;;;;10.00;6.47;;;;;;;24.90;58.79;100592.53;5012308;28;20029;-82
2022/09/03 10:00:15;;;;;;;10.77;6.10;;;;;;;24.81;59.09;100597.44;5012498;28;20038;-82
2022/09/03 10:02:50;;;;;;;11.10;5.57;;;;;;;24.76;59.46;100586.22;5011983;28;20053;-85
2022/09/03 10:05:26;;;;;;;12.95;5.35;;;;;;;24.77;59.67;100581.56;5012253;28;20437;-81
2022/09/03 10:08:00;;;;;;;7.93;5.78;;;;;;;24.78;59.58;100581.34;5012405;28;20111;-88
2022/09/03 10:10:28;;;;;;;6.07;5.25;;;;;;;24.63;59.37;100594.53;5014618;28;20455;-88
2022/09/03 10:13:31;;;;;;;8.77;5.32;;;;;;;24.49;60.23;100598.41;5013561;28;20506;-93
2022/09/03 10:16:08;;;;;;;8.80;5.47;;;;;;;24.40;60.27;100599.69;5014873;28;20400;-91
2022/09/03 10:18:42;;;;;;;8.40;5.70;;;;;;;24.40;60.14;100594.19;5014863;28;20410;-87
2022/09/03 10:21:26;;;;;;;9.20;5.45;;;;;;;24.44;60.37;100595.44;5032018;28;20511;-86
2022/09/03 10:24:01;;;;;;;13.07;6.43;;;;;;;24.42;59.75;100608.56;5031764;28;20044;-85
2022/09/03 10:26:31;;;;;;;9.43;6.10;;;;;;;24.31;59.73;100617.47;5031703;28;20029;-82
2022/09/03 10:29:00;;;;;;;15.40;7.35;;;;;;;24.21;60.09;100606.06;5031469;28;20129;-85
2022/09/03 10:31:43;;;;;;;10.27;6.10;;;;;;;24.23;60.18;100621.28;5032166;28;20033;-83
2022/09/03 10:34:41;;;;;;;13.02;6.75;;;;;;;24.28;60.24;100637.97;5037184;28;20037;-83
2022/09/03 10:37:32;;;;;;;10.05;5.80;;;;;;;24.33;60.34;100638.19;5037135;28;20041;-83
2022/09/03 10:40:09;;;;;;;8.63;5.68;;;;;;;24.47;59.38;100617.00;5022238;28;20570;-86
2022/09/03 10:42:47;;;;;;;8.25;6.25;;;;;;;24.69;58.81;100631.31;5039953;28;20034;-84
2022/09/03 10:45:22;;;;;;;10.63;5.72;;;;;;;25.00;58.56;100622.34;5040401;28;20037;-83
2022/09/03 10:47:56;;;;;;;11.27;5.68;;;;;;;25.22;57.47;100621.81;5041058;28;20068;-85
2022/09/03 10:50:30;;;;;;;17.50;6.05;;;;;;;25.25;57.08;100617.78;5040361;28;20416;-84
2022/09/03 10:53:30;;;;;;;9.00;6.07;;;;;;;25.10;57.11;100622.72;5038701;28;20048;-81
2022/09/03 10:56:07;;;;;;;13.10;5.55;;;;;;;24.95;57.45;100630.41;5040122;28;20037;-83
2022/09/03 10:58:51;;;;;;;11.68;5.82;;;;;;;24.75;57.44;100623.03;5039988;28;20040;-83
2022/09/03 11:01:25;;;;;;;11.40;5.90;;;;;;;24.65;57.81;100636.41;5039029;28;20097;-82
2022/09/03 11:03:57;;;;;;;8.30;5.25;;;;;;;24.43;58.19;100636.91;5038336;28;20057;-82
2022/09/03 11:06:29;;;;;;;7.77;5.97;;;;;;;24.19;58.97;100641.13;5038645;28;20044;-81
2022/09/03 11:09:11;;;;;;;8.15;6.10;;;;;;;24.18;59.33;100653.22;5021131;28;20037;-85
2022/09/03 11:11:44;;;;;;;25.23;16.90;;;;;;;24.28;59.35;100645.34;5037162;28;20111;-87
2022/09/03 11:14:14;;;;;;;9.15;5.63;;;;;;;24.51;59.00;100651.25;5025559;28;20100;-83
2022/09/03 11:17:10;;;;;;;6.85;4.60;;;;;;;24.71;58.77;100643.78;4999723;28;20029;-83
2022/09/03 11:19:46;;;;;;;10.50;6.15;;;;;;;24.83;57.98;100644.03;5010989;28;20068;-81
2022/09/03 11:22:15;;;;;;;10.35;6.40;;;;;;;24.85;57.25;100645.50;5019280;28;20106;-82
2022/09/03 11:24:41;;;;;;;13.75;6.72;;;;;;;24.99;56.83;100653.66;5000760;28;20419;-83
2022/09/03 11:27:37;;;;;;;8.52;5.72;;;;;;;24.88;56.61;100647.81;5022448;28;20041;-88
2022/09/03 11:30:21;;;;;;;9.32;5.82;;;;;;;24.66;57.18;100654.59;5021542;28;20041;-84
2022/09/03 11:32:59;;;;;;;8.38;6.07;;;;;;;24.51;58.05;100640.25;5020695;28;20083;-90
2022/09/03 11:35:32;;;;;;;9.60;5.82;;;;;;;24.57;58.05;100657.81;5018676;28;20087;-89
2022/09/03 11:37:59;;;;;;;10.07;4.78;;;;;;;24.53;58.62;100631.78;5000420;28;20129;-87
2022/09/03 11:40:35;;;;;;;8.30;5.28;;;;;;;24.79;57.58;100643.56;5001269;28;20109;-92